Time;durP1;ratioP1;P1;durP2;ratioP2;P2;SDS_P1;SDS_P2;PMS_P1;PMS_P2;Temp;Humidity;BMP_temperature;BMP_pressure;BME280_temperature;BME280_humidity;BME280_pressure;Samples;Min_cycle;Max_cycle;Signal;HPM_P1;HPM_P2
2024/04/09 00:02:07;;;;;;;18.40;5.93;;;17.00;53.30;;;16.40;53.05;96929.81;5399857;26;21054;-71
2024/04/09 00:04:36;;;;;;;26.43;5.73;;;16.80;53.60;;;16.28;53.28;96924.69;5383885;26;20576;-72
2024/04/09 00:07:04;;;;;;;16.63;5.77;;;16.70;53.70;;;16.23;53.74;96913.81;5399285;26;20477;-71
2024/04/09 00:09:33;;;;;;;21.23;7.00;;;16.60;53.90;;;16.23;53.77;96935.63;5390268;26;20515;-70
2024/04/09 00:11:59;;;;;;;19.30;6.33;;;16.50;54.10;;;16.14;54.37;96919.03;5385914;26;20574;-72
2024/04/09 00:14:30;;;;;;;19.90;5.80;;;16.40;54.20;;;16.13;54.58;96929.09;5381932;26;20466;-71
2024/04/09 00:16:57;;;;;;;26.57;6.73;;;16.30;54.30;;;16.23;54.63;96924.72;5368807;26;20454;-72
2024/04/09 00:19:29;;;;;;;17.87;6.50;;;16.40;54.50;;;16.08;54.89;96917.44;5375157;26;20458;-71
2024/04/09 00:21:55;;;;;;;18.73;6.90;;;16.30;54.40;;;16.09;54.57;96919.84;5400057;26;21026;-71
2024/04/09 00:24:25;;;;;;;16.30;5.83;;;16.30;54.40;;;16.17;54.84;96910.28;5386510;26;20908;-71
2024/04/09 00:26:51;;;;;;;24.27;6.30;;;16.30;54.50;;;16.25;53.82;96900.72;5394774;26;20463;-68
2024/04/09 00:29:21;;;;;;;22.30;6.53;;;16.40;54.30;;;16.16;54.69;96905.13;5388457;26;20505;-71
2024/04/09 00:31:47;;;;;;;19.43;6.70;;;16.40;54.40;;;16.27;53.94;96896.63;5399809;26;20459;-70
2024/04/09 00:34:15;;;;;;;25.83;6.70;;;16.50;54.40;;;16.20;54.89;96898.03;5381034;26;20507;-71
2024/04/09 00:36:45;;;;;;;29.17;7.20;;;16.50;54.80;;;16.10;55.20;96891.50;5383282;26;20459;-72
2024/04/09 00:39:23;;;;;;;23.53;6.23;;;16.40;54.80;;;16.38;53.91;96885.69;5391446;26;20805;-70
2024/04/09 00:41:49;;;;;;;18.80;6.40;;;16.50;54.40;;;16.51;53.88;96873.34;5396700;26;20442;-71
2024/04/09 00:44:18;;;;;;;16.63;6.53;;;16.70;54.50;;;16.57;52.90;96864.84;5388877;26;20531;-70
2024/04/09 00:46:46;;;;;;;17.63;6.63;;;16.80;54.20;;;16.57;53.69;96872.19;5402214;26;20459;-69
2024/04/09 00:49:19;;;;;;;24.10;7.50;;;16.80;54.20;;;16.51;53.57;96865.16;5379358;26;20771;-71
2024/04/09 00:51:52;;;;;;;16.80;6.40;;;16.80;54.30;;;16.48;54.30;96857.56;5387690;26;20521;-70
2024/04/09 00:54:22;;;;;;;21.53;6.00;;;16.80;54.60;;;16.53;54.26;96849.31;5385955;26;20576;-72
2024/04/09 00:56:49;;;;;;;21.57;6.60;;;16.80;54.50;;;16.24;54.40;96829.06;5382677;26;20459;-70
2024/04/09 00:59:21;;;;;;;26.97;6.20;;;16.70;54.70;;;16.29;55.05;96841.81;5399073;26;21042;-71
2024/04/09 01:01:49;;;;;;;25.83;6.80;;;16.70;54.80;;;16.16;55.36;96840.53;5395649;26;22546;-71
2024/04/09 01:04:18;;;;;;;18.03;6.40;;;16.50;54.90;;;16.19;55.49;96845.44;5387951;26;20476;-70
2024/04/09 01:06:47;;;;;;;18.03;6.30;;;16.40;55.10;;;16.20;54.94;96838.09;5377982;26;20578;-71
2024/04/09 01:09:16;;;;;;;26.60;6.53;;;16.50;54.90;;;16.14;55.25;96845.47;5397004;26;20451;-70
2024/04/09 01:11:42;;;;;;;27.20;7.13;;;16.50;55.00;;;16.21;55.13;96851.41;5398272;26;20463;-70
2024/04/09 01:14:11;;;;;;;15.73;5.50;;;16.50;55.00;;;16.19;55.27;96847.34;5384553;26;20524;-69
2024/04/09 01:16:38;;;;;;;26.77;6.33;;;16.50;55.00;;;16.05;55.01;96847.97;5379712;26;20808;-70
2024/04/09 01:19:07;;;;;;;18.30;5.97;;;16.50;55.10;;;16.09;55.43;96854.47;5384012;26;20515;-70
2024/04/09 01:21:33;;;;;;;22.03;5.90;;;16.40;55.20;;;16.09;55.73;96856.41;5383288;26;20452;-70
2024/04/09 01:24:05;;;;;;;19.97;5.63;;;16.40;55.30;;;16.12;55.54;96856.63;5379939;26;20454;-70
2024/04/09 01:26:31;;;;;;;20.90;7.17;;;16.40;55.40;;;16.23;55.71;96853.88;5379478;26;20460;-71
2024/04/09 01:29:00;;;;;;;25.77;6.30;;;16.40;55.60;;;16.09;55.92;96876.28;5390118;26;20464;-70
2024/04/09 01:31:26;;;;;;;22.20;6.33;;;16.40;55.60;;;16.25;56.12;96874.28;5391989;26;21001;-71
2024/04/09 01:33:55;;;;;;;21.20;6.40;;;16.40;55.80;;;16.43;55.41;96872.81;5380178;26;20495;-70
2024/04/09 01:36:22;;;;;;;29.50;7.03;;;16.60;55.70;;;16.41;55.83;96883.19;5377077;26;20455;-70
2024/04/09 01:38:51;;;;;;;14.50;6.40;;;16.70;55.90;;;16.23;56.73;96886.56;5389348;26;20671;-70
2024/04/09 01:41:20;;;;;;;20.27;7.00;;;16.60;56.00;;;16.09;56.93;96886.38;5385760;26;21025;-70
2024/04/09 01:43:50;;;;;;;26.50;7.40;;;16.40;56.30;;;16.05;57.19;96891.56;5391479;26;21001;-70
2024/04/09 01:46:16;;;;;;;21.73;6.27;;;16.40;56.40;;;16.05;57.02;96880.66;5387314;26;21357;-70
2024/04/09 01:48:47;;;;;;;23.40;7.20;;;16.50;56.50;;;16.09;57.66;96897.25;5379799;26;20471;-70
2024/04/09 01:51:13;;;;;;;25.17;6.70;;;16.40;56.50;;;15.83;57.77;96879.06;5401126;26;21103;-71
2024/04/09 01:53:48;;;;;;;19.07;6.73;;;16.40;56.70;;;15.72;58.71;96888.38;5388469;26;21155;-69
2024/04/09 01:56:15;;;;;;;23.23;6.67;;;16.20;56.90;;;15.64;59.21;96907.97;5391259;26;20570;-70
2024/04/09 01:58:46;;;;;;;19.07;6.40;;;16.00;57.10;;;15.51;59.78;96904.72;5391329;26;20467;-70
2024/04/09 02:01:14;;;;;;;22.03;6.60;;;15.90;57.60;;;15.56;59.80;96896.56;5379216;26;20459;-70
2024/04/09 02:03:49;;;;;;;22.87;6.43;;;15.80;57.90;;;15.75;59.37;96898.69;5395547;26;20491;-70
2024/04/09 02:06:17;;;;;;;21.93;6.93;;;15.90;58.00;;;15.51;60.12;96899.28;5393271;26;21253;-74
2024/04/09 02:08:50;;;;;;;24.50;7.30;;;15.80;58.00;;;15.46;60.27;96907.47;5380310;26;20456;-71
2024/04/09 02:11:17;;;;;;;21.37;6.33;;;15.80;58.40;;;15.40;60.77;96900.41;5390544;26;20482;-71
2024/04/09 02:13:50;;;;;;;20.97;6.20;;;15.70;58.60;;;15.66;60.58;96897.63;5375806;26;20531;-71
2024/04/09 02:16:16;;;;;;;15.33;5.97;;;15.80;59.00;;;15.72;60.07;96888.38;5378362;26;20449;-71
2024/04/09 02:18:45;;;;;;;24.90;6.57;;;15.90;58.90;;;15.70;60.60;96902.25;5375901;26;20551;-71
2024/04/09 02:21:11;;;;;;;24.77;7.13;;;15.90;58.90;;;15.65;60.42;96896.81;5382438;26;20582;-72
2024/04/09 02:23:41;;;;;;;16.63;6.27;;;15.90;59.00;;;15.41;61.21;96893.88;5377389;26;21028;-73
2024/04/09 02:26:09;;;;;;;19.03;6.60;;;15.80;59.10;;;15.29;61.56;96894.13;5384716;26;20526;-72
2024/04/09 02:28:38;;;;;;;23.67;6.53;;;15.60;59.30;;;15.37;61.61;96890.06;5385867;26;20460;-71
2024/04/09 02:31:07;;;;;;;18.63;6.93;;;15.60;59.70;;;14.85;61.76;96811.22;5379509;26;21023;-71
2024/04/09 02:33:36;;;;;;;14.00;6.03;;;15.50;59.70;;;15.33;61.62;96880.81;5417697;26;20476;-72
2024/04/09 02:36:06;;;;;;;23.23;7.20;;;15.60;59.80;;;15.42;61.79;96884.63;5397302;26;20510;-72
2024/04/09 02:38:38;;;;;;;13.87;6.50;;;15.70;60.00;;;15.36;61.49;96886.53;5379716;26;20472;-71
2024/04/09 02:41:06;;;;;;;16.33;6.40;;;15.70;60.00;;;15.36;61.61;96894.69;5388910;26;20492;-72
2024/04/09 02:43:36;;;;;;;20.70;7.10;;;15.70;60.10;;;15.22;62.39;96891.69;5389803;26;20998;-72
2024/04/09 02:46:03;;;;;;;14.97;7.30;;;15.60;60.20;;;15.05;63.38;96896.59;5387744;26;20577;-71
2024/04/09 02:48:35;;;;;;;21.73;6.90;;;15.40;60.60;;;15.07;63.45;96897.13;5379115;26;20522;-71
2024/04/09 02:51:03;;;;;;;13.47;6.93;;;15.40;61.00;;;15.09;63.38;96886.81;5393780;26;21064;-72
2024/04/09 02:53:32;;;;;;;19.83;6.90;;;15.30;61.20;;;14.68;63.43;96823.16;5371761;26;20476;-72
2024/04/09 02:56:01;;;;;;;22.30;8.30;;;15.40;61.40;;;14.94;63.94;96874.88;5372373;26;20452;-72
2024/04/09 02:58:30;;;;;;;19.17;7.90;;;15.40;61.70;;;14.85;64.83;96892.78;5412155;26;20470;-72
2024/04/09 03:00:58;;;;;;;19.70;7.17;;;15.30;61.80;;;14.73;65.91;96896.59;5383930;26;20452;-70
2024/04/09 03:03:26;;;;;;;15.63;6.43;;;15.10;62.30;;;14.69;66.01;96890.03;5388349;26;20485;-71
2024/04/09 03:05:55;;;;;;;16.00;6.50;;;15.00;62.70;;;14.44;65.86;96867.16;5387404;26;20459;-71
2024/04/09 03:08:25;;;;;;;14.20;7.23;;;14.90;62.90;;;14.47;66.80;96886.72;5387234;26;20478;-71
2024/04/09 03:10:51;;;;;;;14.30;6.87;;;14.70;63.40;;;14.41;66.76;96884.00;5389621;26;20454;-70
2024/04/09 03:13:21;;;;;;;15.67;6.57;;;14.80;63.90;;;14.28;67.50;96885.31;5394558;26;20486;-71
2024/04/09 03:15:47;;;;;;;17.53;7.00;;;14.60;64.10;;;14.35;66.61;96882.34;5390889;26;20512;-71
2024/04/09 03:18:17;;;;;;;19.50;7.40;;;14.70;64.40;;;14.63;65.91;96880.22;5390337;26;20482;-69
2024/04/09 03:20:44;;;;;;;19.47;7.07;;;14.80;64.50;;;14.52;66.44;96873.16;5383607;26;20588;-70
2024/04/09 03:23:19;;;;;;;22.77;7.50;;;14.90;64.50;;;14.49;67.33;96890.00;5389719;26;20527;-69
2024/04/09 03:25:47;;;;;;;16.93;7.33;;;14.80;64.70;;;14.42;67.17;96874.75;5381853;26;20525;-72
2024/04/09 03:28:17;;;;;;;13.53;6.30;;;14.80;64.80;;;14.48;66.78;96874.75;5381998;26;20590;-72
2024/04/09 03:30:43;;;;;;;20.33;6.23;;;14.80;64.70;;;14.32;66.50;96869.28;5364932;26;20470;-71
2024/04/09 03:33:12;;;;;;;20.30;6.40;;;14.80;64.60;;;14.33;64.49;96816.59;5384095;26;20476;-71
2024/04/09 03:35:39;;;;;;;14.67;7.47;;;15.00;63.90;;;14.98;63.75;96875.94;5376925;26;21046;-71
2024/04/09 03:38:08;;;;;;;15.57;6.43;;;15.20;63.50;;;15.02;63.26;96870.78;5394573;26;20461;-69
2024/04/09 03:40:39;;;;;;;12.13;5.20;;;15.30;63.20;;;14.42;63.19;96771.50;5395079;26;20579;-72
2024/04/09 03:43:08;;;;;;;14.97;6.43;;;15.30;63.10;;;15.05;62.68;96870.22;5374158;26;20779;-72
2024/04/09 03:45:36;;;;;;;16.87;6.40;;;15.40;62.90;;;15.06;62.82;96874.56;5358279;26;20446;-71
2024/04/09 03:48:05;;;;;;;25.20;5.87;;;15.40;62.90;;;15.08;62.64;96879.72;5387145;26;20494;-72
2024/04/09 03:50:36;;;;;;;15.23;5.83;;;15.50;62.80;;;15.09;62.77;96874.03;5400042;26;20466;-72
2024/04/09 03:53:05;;;;;;;14.40;5.80;;;15.50;62.70;;;15.09;62.66;96876.75;5386264;26;20562;-72
2024/04/09 03:55:32;;;;;;;12.97;6.00;;;15.50;62.70;;;15.08;62.47;96875.13;5387837;26;20449;-73
2024/04/09 03:58:04;;;;;;;16.90;7.00;;;15.50;62.50;;;15.06;62.71;96880.03;5401233;26;20561;-72
2024/04/09 04:00:30;;;;;;;18.47;6.47;;;15.50;62.60;;;15.06;62.40;96879.19;5392570;26;20616;-72
2024/04/09 04:02:59;;;;;;;17.00;5.73;;;15.50;62.50;;;14.97;62.91;96882.47;5381333;26;21537;-71
2024/04/09 04:05:26;;;;;;;13.77;5.83;;;15.50;62.70;;;14.99;62.71;96876.75;5422007;26;20478;-70
2024/04/09 04:07:55;;;;;;;16.30;6.00;;;15.50;62.60;;;15.08;62.39;96886.00;5380687;26;20860;-69
2024/04/09 04:10:21;;;;;;;15.73;6.40;;;15.50;62.40;;;15.06;62.22;96881.91;5384987;26;21049;-70
2024/04/09 04:12:52;;;;;;;14.13;6.80;;;15.50;62.20;;;14.85;61.72;96844.66;5394570;26;20850;-71
2024/04/09 04:15:22;;;;;;;19.63;6.47;;;15.50;62.00;;;15.02;61.42;96862.63;5389589;26;20463;-71
2024/04/09 04:17:51;;;;;;;14.33;6.60;;;15.60;62.00;;;15.30;60.75;96876.72;5385128;26;20471;-72
2024/04/09 04:20:17;;;;;;;12.60;5.97;;;15.60;61.70;;;15.17;61.37;96883.53;5385767;26;20460;-72
2024/04/09 04:22:46;;;;;;;11.70;5.90;;;15.60;61.60;;;15.27;60.63;96878.09;5424003;26;20468;-69
2024/04/09 04:25:12;;;;;;;11.30;5.80;;;15.70;61.50;;;15.23;60.58;96871.56;5387052;26;20455;-72
2024/04/09 04:27:45;;;;;;;16.17;5.70;;;15.70;61.30;;;15.41;59.85;96883.78;5382812;26;20467;-71
2024/04/09 04:30:13;;;;;;;16.93;5.70;;;15.70;60.90;;;15.43;59.29;96869.91;5390194;26;20573;-68
2024/04/09 04:32:44;;;;;;;11.53;5.67;;;15.90;60.80;;;15.49;59.10;96870.72;5388933;26;20827;-71
2024/04/09 04:35:10;;;;;;;21.83;6.70;;;15.90;60.50;;;15.59;59.03;96878.84;5398797;26;20515;-71
2024/04/09 04:37:39;;;;;;;21.13;7.40;;;16.00;60.40;;;15.62;58.59;96872.88;5387801;26;20597;-72
2024/04/09 04:40:10;;;;;;;20.50;5.57;;;16.10;60.30;;;15.66;58.26;96875.84;5380164;26;20521;-71
2024/04/09 04:42:38;;;;;;;15.03;5.77;;;16.10;60.00;;;15.71;58.20;96882.09;5387406;26;20518;-71
2024/04/09 04:45:06;;;;;;;19.33;5.77;;;16.10;59.90;;;15.79;57.58;96879.91;5391503;26;20523;-70
2024/04/09 04:47:35;;;;;;;16.87;5.80;;;16.20;59.70;;;15.83;57.59;96870.09;5395245;26;20472;-72
2024/04/09 04:50:05;;;;;;;17.70;5.87;;;16.30;59.60;;;15.83;57.70;96876.31;5375516;26;20565;-72
2024/04/09 04:52:34;;;;;;;13.30;5.73;;;16.30;59.60;;;15.60;57.07;96819.78;5394434;26;20525;-73
2024/04/09 04:55:02;;;;;;;16.40;5.60;;;16.30;59.30;;;16.04;57.71;96873.56;5385492;26;20447;-73
2024/04/09 04:57:32;;;;;;;14.60;5.27;;;16.30;60.00;;;15.88;56.85;96847.47;5389932;26;20580;-72
2024/04/09 04:59:59;;;;;;;16.13;5.80;;;16.40;59.30;;;16.04;56.21;96850.94;5426861;26;20502;-71
2024/04/09 05:02:30;;;;;;;14.03;5.17;;;16.50;59.00;;;16.25;55.76;96868.03;5378967;26;20561;-73
2024/04/09 05:04:57;;;;;;;13.50;6.17;;;16.60;58.80;;;16.36;54.92;96874.22;5387131;26;20519;-71
2024/04/09 05:07:29;;;;;;;15.30;5.93;;;16.70;58.40;;;16.35;55.26;96857.06;5390644;26;20482;-73
2024/04/09 05:09:55;;;;;;;11.97;5.10;;;16.80;58.50;;;16.58;55.13;96892.91;5400959;26;20453;-73
2024/04/09 05:12:24;;;;;;;17.77;5.80;;;16.90;58.70;;;16.61;54.99;96892.38;5364321;26;20471;-75
2024/04/09 05:14:52;;;;;;;14.67;5.80;;;16.90;58.50;;;16.73;54.17;96889.28;5385419;26;20451;-74
2024/04/09 05:17:22;;;;;;;15.47;4.87;;;17.00;58.30;;;16.81;53.42;96874.22;5392554;26;20464;-73
2024/04/09 05:19:50;;;;;;;16.20;5.50;;;17.10;58.00;;;16.98;52.95;96891.00;5378079;26;20584;-80
2024/04/09 05:22:23;;;;;;;17.60;5.50;;;17.30;57.70;;;17.04;53.15;96869.16;5382140;26;21008;-72
2024/04/09 05:24:53;;;;;;;10.60;4.83;;;17.40;58.00;;;17.26;52.43;96896.81;5394325;26;20512;-72
2024/04/09 05:27:22;;;;;;;18.00;5.47;;;17.50;57.30;;;16.93;51.71;96855.59;5397000;26;20534;-76
2024/04/09 05:29:48;;;;;;;14.60;5.50;;;17.60;56.70;;;17.39;52.14;96911.69;5389360;26;20442;-73
2024/04/09 05:32:17;;;;;;;11.33;5.20;;;17.70;57.10;;;17.53;51.17;96911.03;5395405;26;20490;-69
2024/04/09 05:34:44;;;;;;;13.87;5.07;;;17.90;56.90;;;17.66;51.50;96910.34;5385893;26;20516;-72
2024/04/09 05:37:13;;;;;;;15.70;6.20;;;17.90;56.80;;;17.66;51.39;96915.81;5379561;26;20472;-71
2024/04/09 05:39:39;;;;;;;22.73;6.00;;;18.00;57.10;;;17.65;51.83;96911.47;5388610;26;21035;-69
2024/04/09 05:42:11;;;;;;;12.00;4.73;;;18.00;57.20;;;17.71;51.39;96923.16;5392471;26;20503;-71
2024/04/09 05:44:37;;;;;;;14.50;5.30;;;18.00;56.90;;;17.73;51.88;96920.13;5396295;26;20510;-71
2024/04/09 05:47:06;;;;;;;13.43;5.63;;;18.00;56.90;;;17.77;52.13;96927.44;5381596;26;20455;-68
2024/04/09 05:49:34;;;;;;;21.03;6.13;;;18.00;57.20;;;17.73;51.50;96917.38;5385245;26;20519;-70
2024/04/09 05:52:02;;;;;;;14.17;5.80;;;18.10;56.70;;;17.86;52.20;96930.38;5383450;26;20514;-71
2024/04/09 05:54:29;;;;;;;14.90;6.17;;;18.10;57.20;;;17.90;50.84;96925.97;5389558;26;20474;-71
2024/04/09 05:56:59;;;;;;;23.77;6.40;;;18.20;56.70;;;17.88;50.62;96938.28;5394255;26;20463;-70
2024/04/09 05:59:30;;;;;;;18.40;6.47;;;18.20;56.50;;;17.65;51.00;96896.97;5377881;26;20458;-73
2024/04/09 06:01:59;;;;;;;13.80;6.10;;;18.30;56.50;;;17.95;49.82;96946.94;5377392;26;20845;-75
2024/04/09 06:04:26;;;;;;;28.50;7.03;;;18.30;55.80;;;17.73;50.70;96948.25;5388990;26;20539;-74
2024/04/09 06:06:54;;;;;;;13.80;5.60;;;18.20;55.70;;;17.67;50.42;96950.22;5388869;26;20587;-73
2024/04/09 06:09:21;;;;;;;14.47;5.80;;;18.10;55.80;;;17.34;50.60;96895.38;5378411;26;20456;-72
2024/04/09 06:11:50;;;;;;;12.07;6.10;;;18.20;55.90;;;17.82;50.30;96965.66;5393207;26;21101;-73
2024/04/09 06:14:16;;;;;;;15.00;5.50;;;18.20;55.80;;;17.83;50.68;96964.56;5382838;26;20491;-75
2024/04/09 06:16:48;;;;;;;21.60;6.83;;;18.30;56.00;;;17.79;50.07;96958.03;5386988;26;20453;-75
2024/04/09 06:19:14;;;;;;;19.87;6.00;;;18.30;55.80;;;17.89;49.88;96967.22;5388250;26;20596;-73
2024/04/09 06:21:43;;;;;;;20.07;6.80;;;18.20;55.80;;;17.93;50.62;96977.28;5377266;26;20491;-74
2024/04/09 06:24:09;;;;;;;15.53;5.90;;;18.30;56.10;;;17.89;50.70;96981.69;5373859;26;20458;-75
2024/04/09 06:26:38;;;;;;;20.33;6.30;;;18.40;56.30;;;17.94;50.60;96989.03;5377152;26;20984;-74
2024/04/09 06:29:04;;;;;;;15.97;6.60;;;18.40;56.20;;;17.97;50.31;96983.00;5385257;26;20511;-74
2024/04/09 06:31:33;;;;;;;18.30;6.57;;;18.40;56.00;;;17.93;50.92;96990.97;5383392;26;20456;-75
2024/04/09 06:34:02;;;;;;;19.90;6.90;;;18.50;56.30;;;17.99;50.66;96998.00;5372698;26;20496;-76
2024/04/09 06:36:31;;;;;;;25.03;7.37;;;18.50;56.20;;;17.86;51.55;97000.59;5390679;26;20450;-72
2024/04/09 06:38:58;;;;;;;16.20;6.70;;;18.40;56.30;;;18.04;50.40;97008.09;5380233;26;20480;-75
2024/04/09 06:41:26;;;;;;;25.07;7.17;;;18.50;56.10;;;18.50;51.06;97004.03;5395606;26;20460;-74
2024/04/09 06:43:52;;;;;;;24.37;7.27;;;18.70;56.90;;;18.33;49.57;97001.78;5372165;26;20499;-73
2024/04/09 06:46:21;;;;;;;18.77;7.30;;;18.80;55.80;;;18.36;49.44;96994.91;5391803;26;20466;-73
2024/04/09 06:48:47;;;;;;;23.27;7.17;;;18.90;55.80;;;18.37;49.73;97000.06;5385280;26;20562;-74
2024/04/09 06:51:20;;;;;;;22.70;7.87;;;18.90;55.80;;;18.68;48.21;97005.16;5389346;26;22061;-75
2024/04/09 06:53:46;;;;;;;24.87;9.03;;;19.00;55.30;;;18.57;48.18;97006.41;5388709;26;20655;-75
2024/04/09 06:56:15;;;;;;;16.80;7.30;;;19.00;55.00;;;18.85;48.65;97009.31;5388834;26;20564;-71
2024/04/09 06:58:41;;;;;;;22.07;6.47;;;19.10;55.20;;;19.01;47.59;97006.41;5375328;26;20503;-74
2024/04/09 07:01:10;;;;;;;15.97;6.70;;;19.30;55.00;;;18.95;47.66;97014.69;5373082;26;21270;-76
2024/04/09 07:03:37;;;;;;;17.80;7.40;;;19.30;54.90;;;19.10;46.76;97021.06;5391140;26;20515;-76
2024/04/09 07:06:06;;;;;;;22.93;8.43;;;19.50;54.30;;;19.31;46.38;97015.28;5391475;26;20513;-73
2024/04/09 07:08:35;;;;;;;16.20;6.17;;;19.60;54.40;;;19.29;46.09;97012.03;5385473;26;20519;-76
2024/04/09 07:11:04;;;;;;;13.57;5.70;;;19.60;54.00;;;19.08;46.75;97032.31;5388579;26;21020;-74
2024/04/09 07:13:31;;;;;;;16.20;6.83;;;19.50;53.90;;;19.11;46.64;97039.13;5371224;26;20941;-75
2024/04/09 07:16:00;;;;;;;14.53;6.40;;;19.50;54.00;;;18.85;46.37;96970.22;5386185;26;20521;-73
2024/04/09 07:18:27;;;;;;;16.73;6.90;;;19.60;54.00;;;19.11;46.82;97039.94;5388516;26;20463;-74
2024/04/09 07:20:56;;;;;;;16.50;6.00;;;19.60;54.00;;;19.31;46.41;97039.94;5380788;26;21038;-76
2024/04/09 07:23:22;;;;;;;14.50;5.77;;;19.60;54.10;;;19.02;46.13;96977.94;5384143;26;20511;-75
2024/04/09 07:25:54;;;;;;;15.00;6.03;;;19.70;53.80;;;19.40;46.15;97040.91;5381876;26;20508;-75
2024/04/09 07:28:20;;;;;;;22.47;5.47;;;19.80;53.90;;;19.35;46.67;97043.72;5387269;26;20509;-75
2024/04/09 07:30:50;;;;;;;11.80;5.03;;;19.80;53.80;;;19.17;46.86;97062.56;5393352;26;20582;-75
2024/04/09 07:33:17;;;;;;;15.40;5.87;;;19.70;53.80;;;19.30;46.35;97057.47;5397347;26;20566;-74
2024/04/09 07:35:46;;;;;;;15.00;6.03;;;19.80;53.80;;;19.30;46.36;97062.94;5403024;26;20589;-73
2024/04/09 07:38:12;;;;;;;19.30;5.10;;;19.80;53.70;;;19.40;45.75;97057.34;5381090;26;20940;-74
2024/04/09 07:40:41;;;;;;;15.80;5.40;;;19.90;53.50;;;19.46;45.38;97064.34;5385195;26;20451;-73
2024/04/09 07:43:10;;;;;;;25.70;6.27;;;19.90;53.30;;;19.70;45.46;97073.59;5395035;26;20953;-73
2024/04/09 07:45:39;;;;;;;13.63;5.67;;;20.10;53.40;;;19.95;44.82;97083.38;5398670;26;20468;-75
2024/04/09 07:48:07;;;;;;;12.60;4.30;;;20.30;53.40;;;19.84;44.84;97084.63;5397558;26;21019;-74
2024/04/09 07:50:37;;;;;;;16.00;5.90;;;20.20;53.20;;;19.83;44.65;97092.00;5385246;26;20562;-73
2024/04/09 07:53:04;;;;;;;20.60;4.93;;;20.30;53.20;;;19.80;45.09;97093.44;5391729;26;20468;-74
2024/04/09 07:55:33;;;;;;;19.23;5.10;;;20.30;53.20;;;19.81;44.92;97100.53;5387992;26;21035;-74
2024/04/09 07:57:59;;;;;;;21.33;5.37;;;20.30;53.20;;;19.80;44.95;97095.34;5390023;26;20444;-74
2024/04/09 08:00:30;;;;;;;21.07;4.97;;;20.30;53.20;;;19.90;44.79;97106.16;5392888;26;20472;-74
2024/04/09 08:02:57;;;;;;;15.67;5.43;;;20.40;53.10;;;19.65;45.01;97096.41;5395643;26;20463;-75
2024/04/09 08:05:26;;;;;;;20.70;5.20;;;20.30;53.10;;;19.61;45.43;97114.53;5386297;26;21143;-74
2024/04/09 08:07:54;;;;;;;18.20;5.23;;;20.10;53.20;;;19.68;45.81;97113.06;5390812;26;20450;-75
2024/04/09 08:10:24;;;;;;;24.13;4.47;;;20.20;53.40;;;19.70;46.15;97121.00;5397161;26;20446;-73
2024/04/09 08:12:51;;;;;;;16.63;4.63;;;20.10;53.60;;;19.61;46.20;97128.25;5396611;26;20451;-73
2024/04/09 08:15:20;;;;;;;19.13;4.67;;;20.10;53.50;;;19.59;46.11;97119.50;5382587;26;20486;-73
2024/04/09 08:17:50;;;;;;;15.73;5.17;;;20.20;53.60;;;19.57;46.21;97143.66;5401302;26;20788;-71
2024/04/09 08:20:19;;;;;;;21.97;5.33;;;20.10;53.60;;;19.59;46.08;97145.00;5388167;26;20566;-74
2024/04/09 08:22:49;;;;;;;18.10;4.70;;;20.10;53.50;;;19.62;45.98;97154.53;5389713;26;20455;-75
2024/04/09 08:25:18;;;;;;;12.73;4.00;;;20.10;53.50;;;19.62;46.03;97140.81;5384376;26;20470;-75
2024/04/09 08:27:45;;;;;;;15.50;5.00;;;20.10;53.50;;;19.60;46.10;97154.00;5394999;26;20466;-73
2024/04/09 08:30:17;;;;;;;14.23;4.70;;;20.10;53.60;;;19.78;46.20;97155.13;5395288;26;20509;-75
2024/04/09 08:32:45;;;;;;;17.33;4.77;;;20.20;53.70;;;19.83;45.96;97149.56;5387594;26;20518;-70
2024/04/09 08:35:17;;;;;;;11.67;3.77;;;20.30;53.70;;;19.70;46.38;97159.34;5389791;26;20520;-74
2024/04/09 08:37:44;;;;;;;18.23;4.50;;;20.20;53.60;;;19.49;46.87;97156.06;5384690;26;20553;-70
2024/04/09 08:40:14;;;;;;;13.67;4.17;;;20.00;53.80;;;19.65;46.66;97159.44;5384400;26;20526;-72
2024/04/09 08:42:42;;;;;;;14.50;3.93;;;20.00;54.00;;;19.72;46.00;97173.56;5393996;26;20502;-71
2024/04/09 08:45:14;;;;;;;15.13;3.83;;;20.10;53.90;;;19.70;46.29;97159.34;5388895;26;20471;-72
2024/04/09 08:47:41;;;;;;;14.83;3.47;;;20.20;53.80;;;19.73;46.54;97169.72;5381498;26;20993;-71
2024/04/09 08:50:12;;;;;;;11.60;3.53;;;20.20;53.80;;;19.78;46.48;97177.84;5395220;26;20485;-74
2024/04/09 08:52:41;;;;;;;15.00;4.07;;;20.20;53.80;;;19.72;46.22;97179.03;5384530;26;20467;-73
2024/04/09 08:55:12;;;;;;;17.23;4.80;;;20.20;53.60;;;19.92;45.81;97182.63;5379249;26;20464;-74
2024/04/09 08:57:38;;;;;;;18.37;4.10;;;20.30;53.80;;;19.94;46.17;97188.63;5391415;26;20553;-75
2024/04/09 09:00:10;;;;;;;11.73;3.57;;;20.40;53.70;;;19.95;45.93;97187.53;5383465;26;20802;-75
2024/04/09 09:02:40;;;;;;;17.00;3.50;;;20.40;53.60;;;20.01;45.71;97190.97;5382101;26;20479;-74
2024/04/09 09:05:16;;;;;;;15.07;4.10;;;20.40;53.50;;;20.34;45.24;97191.84;5394291;26;20580;-73
2024/04/09 09:07:47;;;;;;;16.43;3.63;;;20.70;53.80;;;20.45;45.03;97208.13;5378015;26;20527;-70
2024/04/09 09:10:14;;;;;;;18.20;4.20;;;20.80;53.50;;;20.51;45.13;97215.16;5386607;26;20606;-73
2024/04/09 09:12:43;;;;;;;11.07;3.23;;;20.80;53.50;;;20.44;45.19;97215.53;5397928;26;21020;-70
2024/04/09 09:15:20;;;;;;;12.93;3.60;;;20.80;53.40;;;20.58;45.17;97217.50;5375036;26;20452;-73
2024/04/09 09:17:52;;;;;;;18.80;3.97;;;21.00;53.70;;;20.69;44.55;97215.41;5391868;26;20458;-74
2024/04/09 09:20:19;;;;;;;13.40;3.70;;;21.10;53.40;;;21.00;44.61;97225.84;5374920;26;20529;-71
2024/04/09 09:22:51;;;;;;;16.07;4.00;;;21.30;53.70;;;21.19;43.79;97193.63;5388334;26;20586;-74
2024/04/09 09:25:20;;;;;;;12.20;3.83;;;21.60;53.80;;;21.04;44.13;97233.19;5394175;26;21157;-75
2024/04/09 09:27:49;;;;;;;12.43;3.67;;;21.50;53.30;;;21.45;43.66;97242.56;5392043;26;20597;-73
2024/04/09 09:30:15;;;;;;;10.67;4.20;;;21.70;53.50;;;21.52;43.44;97233.91;5390545;26;20504;-74
2024/04/09 09:32:50;;;;;;;11.50;3.67;;;21.80;53.40;;;21.83;42.82;97252.53;5377105;26;20509;-71
2024/04/09 09:35:18;;;;;;;12.40;3.70;;;22.10;53.30;;;21.50;42.84;97238.88;5370143;26;20465;-73
2024/04/09 09:37:52;;;;;;;13.40;3.90;;;22.00;52.90;;;21.19;43.55;97248.56;5382769;26;20528;-72
2024/04/09 09:40:19;;;;;;;18.73;3.70;;;21.70;52.90;;;21.00;43.69;97250.56;5376733;26;21198;-73
2024/04/09 09:42:49;;;;;;;13.30;3.97;;;21.50;53.00;;;20.74;44.47;97254.53;5390322;26;20516;-75
2024/04/09 09:45:16;;;;;;;11.30;3.87;;;21.20;53.00;;;20.88;43.99;97245.56;5387211;26;20921;-74
2024/04/09 09:47:48;;;;;;;9.57;3.10;;;21.30;53.30;;;20.78;44.43;97255.59;5395641;26;20459;-70
2024/04/09 09:50:15;;;;;;;13.90;3.93;;;21.20;53.20;;;20.74;44.81;97261.97;5386859;26;20548;-74
2024/04/09 09:52:45;;;;;;;9.83;3.10;;;21.20;53.40;;;20.71;45.30;97265.34;5379930;26;20461;-71
2024/04/09 09:55:14;;;;;;;19.10;3.20;;;21.10;53.70;;;20.85;45.27;97263.47;5395188;26;20901;-73
2024/04/09 09:57:49;;;;;;;9.33;3.50;;;21.20;53.80;;;21.06;45.06;97274.88;5397436;26;20463;-70
2024/04/09 10:00:16;;;;;;;13.77;3.07;;;21.40;53.80;;;20.57;45.00;97224.94;5377345;26;20460;-73
2024/04/09 10:02:46;;;;;;;4.87;2.30;;;21.40;53.80;;;20.62;45.99;97282.47;5388720;26;20663;-71
2024/04/09 10:05:14;;;;;;;11.80;3.20;;;21.20;53.90;;;20.31;46.53;97282.94;5389298;26;20595;-75
2024/04/09 10:07:43;;;;;;;10.23;3.37;;;20.90;54.00;;;20.37;46.69;97292.72;5378641;26;20487;-71
2024/04/09 10:10:10;;;;;;;9.00;2.80;;;20.80;54.10;;;20.51;46.65;97286.47;5386087;26;20521;-75
2024/04/09 10:12:42;;;;;;;9.00;2.77;;;20.90;54.40;;;20.58;46.83;97286.09;5383040;26;21008;-75
2024/04/09 10:15:11;;;;;;;7.00;2.67;;;21.00;54.50;;;20.42;46.75;97280.06;5386490;26;20990;-72
2024/04/09 10:17:52;;;;;;;8.83;2.50;;;21.00;54.40;;;20.46;47.52;97283.81;5386157;26;21095;-73
2024/04/09 10:20:20;;;;;;;6.43;2.43;;;20.90;54.80;;;20.66;47.20;97288.97;5386889;26;20467;-73